Time;durP1;ratioP1;P1;durP2;ratioP2;P2;SDS_P1;SDS_P2;PMS_P1;PMS_P2;Temp;Humidity;BMP_temperature;BMP_pressure;BME280_temperature;BME280_humidity;BME280_pressure;Samples;Min_cycle;Max_cycle;Signal;HPM_P1;HPM_P2
2023/12/15 00:00:18;;;;;;;13.67;8.43;;;1.60;99.90;0.60;100897;;;;585101;240;24344;-83
2023/12/15 00:02:47;;;;;;;15.87;9.17;;;1.60;99.90;0.60;100903;;;;572974;245;24119;-81
2023/12/15 00:05:16;;;;;;;15.40;8.03;;;1.60;99.90;0.60;100901;;;;583109;240;24068;-81
2023/12/15 00:07:44;;;;;;;16.33;9.57;;;1.60;99.90;0.60;100903;;;;598164;240;24052;-78
2023/12/15 00:10:11;;;;;;;22.80;9.33;;;1.70;99.90;0.60;100903;;;;582155;240;24039;-78
2023/12/15 00:12:36;;;;;;;17.30;8.90;;;1.70;99.90;0.60;100910;;;;597058;240;24040;-79
2023/12/15 00:15:07;;;;;;;21.20;10.20;;;1.60;99.90;0.60;100915;;;;596271;240;24052;-80
2023/12/15 00:17:34;;;;;;;22.27;10.17;;;1.60;99.90;0.60;100917;;;;596907;240;24049;-77
2023/12/15 00:20:00;;;;;;;19.53;9.40;;;1.70;99.90;0.60;100917;;;;585909;240;24028;-76
2023/12/15 00:22:27;;;;;;;18.77;8.53;;;1.70;99.90;0.60;100914;;;;596711;240;24035;-76
2023/12/15 00:24:55;;;;;;;17.73;8.20;;;1.70;99.90;0.70;100915;;;;584696;240;24022;-78
2023/12/15 00:27:24;;;;;;;15.23;8.53;;;1.70;99.90;0.70;100917;;;;596739;240;24125;-78
2023/12/15 00:29:56;;;;;;;25.92;13.35;;;1.70;99.90;0.70;100931;;;;579629;240;34942;-79
2023/12/15 00:32:21;;;;;;;18.23;8.57;;;1.70;99.90;0.70;100922;;;;582305;240;24030;-78
2023/12/15 00:34:48;;;;;;;13.80;7.43;;;1.70;99.90;0.70;100932;;;;597133;240;24124;-78
2023/12/15 00:37:16;;;;;;;16.13;7.03;;;1.80;99.90;0.70;100926;;;;599304;238;24039;-78
2023/12/15 00:39:44;;;;;;;9.27;6.10;;;1.80;99.90;0.70;100929;;;;598416;240;24032;-78
2023/12/15 00:42:12;;;;;;;8.43;6.00;;;1.80;99.90;0.70;100939;;;;585250;240;24038;-76
2023/12/15 00:44:40;;;;;;;13.60;7.63;;;1.70;99.90;0.70;100942;;;;597190;240;24088;-77
2023/12/15 00:47:09;;;;;;;10.17;5.63;;;1.80;99.90;0.80;100928;;;;584953;240;24070;-76
2023/12/15 00:49:37;;;;;;;7.33;6.13;;;1.80;99.90;0.80;100932;;;;596950;240;24062;-77
2023/12/15 00:52:09;;;;;;;11.97;6.33;;;1.80;99.90;0.80;100932;;;;597617;240;24102;-77
2023/12/15 00:54:35;;;;;;;15.70;6.43;;;1.80;99.90;0.80;100931;;;;584853;243;24063;-77
2023/12/15 00:57:01;;;;;;;12.23;7.00;;;1.80;99.90;0.80;100928;;;;584622;240;24045;-78
2023/12/15 00:59:29;;;;;;;15.63;7.27;;;1.70;99.90;0.80;100937;;;;588132;240;24049;-78
2023/12/15 01:01:57;;;;;;;10.33;6.00;;;1.80;99.90;0.80;100942;;;;596903;240;24034;-79
2023/12/15 01:04:25;;;;;;;11.60;5.50;;;1.90;99.90;0.80;100938;;;;585169;240;24043;-78
2023/12/15 01:06:54;;;;;;;17.92;9.68;;;1.80;99.90;0.80;100948;;;;592111;240;35041;-77
2023/12/15 01:09:22;;;;;;;17.97;11.87;;;1.80;99.90;0.80;100949;;;;597869;240;24053;-76
2023/12/15 01:11:50;;;;;;;10.10;4.87;;;1.80;99.90;0.80;100954;;;;597329;240;24099;-78
2023/12/15 01:14:18;;;;;;;16.55;9.95;;;1.80;99.90;0.80;100952;;;;583281;240;34975;-78
2023/12/15 01:16:47;;;;;;;17.10;8.77;;;1.90;99.90;0.80;100959;;;;597195;240;24065;-81
2023/12/15 01:19:15;;;;;;;9.00;4.60;;;1.80;99.90;0.80;100965;;;;586282;240;24035;-77
2023/12/15 01:21:43;;;;;;;9.83;5.00;;;1.90;99.90;0.80;100974;;;;585885;244;24089;-77
2023/12/15 01:24:11;;;;;;;13.20;5.13;;;2.00;99.90;0.80;100970;;;;590009;240;24056;-78
2023/12/15 01:26:40;;;;;;;10.17;5.27;;;1.90;99.90;0.80;100971;;;;580667;245;24137;-80
2023/12/15 01:29:08;;;;;;;8.43;4.60;;;1.70;99.90;0.70;100977;;;;582552;240;24016;-78
2023/12/15 01:31:36;;;;;;;10.10;5.37;;;1.70;99.90;0.70;100985;;;;596751;240;24129;-78
2023/12/15 01:34:06;;;;;;;7.90;4.63;;;1.80;99.90;0.70;100985;;;;584623;240;24039;-78
2023/12/15 01:36:37;;;;;;;13.50;8.02;;;1.80;99.90;0.70;100985;;;;591556;240;45937;-77
2023/12/15 01:39:05;;;;;;;12.83;7.00;;;1.80;99.90;0.70;100987;;;;596531;239;24117;-76
2023/12/15 01:41:31;;;;;;;9.67;4.70;;;1.80;99.90;0.70;100993;;;;589106;240;24102;-76
2023/12/15 01:43:57;;;;;;;8.60;5.70;;;1.80;99.90;0.80;100987;;;;596687;240;24047;-77
2023/12/15 01:46:25;;;;;;;11.43;5.70;;;1.70;99.90;0.80;100992;;;;584618;240;24058;-78
2023/12/15 01:48:57;;;;;;;10.23;5.27;;;1.80;99.90;0.80;100991;;;;598041;239;24035;-77
2023/12/15 01:51:22;;;;;;;10.37;5.63;;;1.90;99.90;0.80;101000;;;;598005;240;24109;-78
2023/12/15 01:53:50;;;;;;;11.00;5.10;;;1.90;99.90;0.80;100988;;;;597576;240;24029;-78
2023/12/15 01:56:18;;;;;;;16.00;5.90;;;1.90;99.90;0.90;100993;;;;597999;240;24111;-81
2023/12/15 01:58:48;;;;;;;10.30;5.23;;;2.20;99.90;0.90;101000;;;;598710;240;24067;-81
2023/12/15 02:01:13;;;;;;;7.23;3.70;;;1.90;99.90;0.90;101003;;;;598132;240;24053;-78
2023/12/15 02:03:41;;;;;;;11.70;5.30;;;1.90;99.90;0.90;101011;;;;597534;240;24065;-82
2023/12/15 02:06:12;;;;;;;5.73;4.07;;;1.90;99.90;0.90;101008;;;;585436;240;24010;-84
2023/12/15 02:08:37;;;;;;;9.27;5.27;;;1.90;99.90;0.80;101007;;;;571704;247;24081;-83
2023/12/15 02:11:05;;;;;;;9.80;4.83;;;1.90;99.90;0.80;101009;;;;598275;240;24133;-84
2023/12/15 02:13:33;;;;;;;10.00;5.13;;;1.80;99.90;0.80;101016;;;;597444;240;24422;-83
2023/12/15 02:16:01;;;;;;;12.37;4.80;;;1.70;99.90;0.70;101014;;;;585263;240;24061;-83
2023/12/15 02:18:29;;;;;;;9.13;4.23;;;1.70;99.90;0.70;101010;;;;597313;240;24043;-85
2023/12/15 02:20:57;;;;;;;6.83;4.73;;;1.60;99.90;0.70;100996;;;;597899;240;24094;-84
2023/12/15 02:23:25;;;;;;;7.73;4.50;;;2.40;99.90;0.60;101004;;;;597307;240;25078;-79
2023/12/15 02:25:53;;;;;;;7.57;4.37;;;1.70;99.90;0.60;101012;;;;596227;240;24035;-82
2023/12/15 02:28:20;;;;;;;8.30;5.67;;;1.50;99.90;0.50;101023;;;;597842;240;24064;-85
2023/12/15 02:30:48;;;;;;;9.50;6.60;;;1.60;99.90;0.50;101021;;;;585262;240;24030;-85
2023/12/15 02:33:16;;;;;;;8.50;6.57;;;1.50;99.90;0.50;101022;;;;598230;240;24063;-76
2023/12/15 02:35:47;;;;;;;9.30;6.60;;;1.50;99.90;0.50;101027;;;;586107;240;24050;-80
2023/12/15 02:38:12;;;;;;;8.67;6.50;;;1.50;99.90;0.40;101033;;;;598171;240;24037;-79
2023/12/15 02:40:44;;;;;;;8.73;6.30;;;1.50;99.90;0.40;101030;;;;598111;240;24035;-82
2023/12/15 02:43:11;;;;;;;8.13;6.03;;;1.40;99.90;0.40;101029;;;;573949;245;24136;-82
2023/12/15 02:45:37;;;;;;;9.87;7.00;;;1.40;99.90;0.40;101031;;;;582637;240;24086;-77
2023/12/15 02:48:04;;;;;;;10.23;7.13;;;1.50;99.90;0.30;101036;;;;589522;240;24026;-78
2023/12/15 02:50:32;;;;;;;11.73;7.23;;;1.40;99.90;0.30;101041;;;;596449;240;24034;-78
2023/12/15 02:53:00;;;;;;;11.20;6.53;;;1.40;99.90;0.30;101039;;;;584223;240;24031;-79
2023/12/15 02:55:29;;;;;;;10.37;6.87;;;1.30;99.90;0.30;101041;;;;576099;245;24106;-77
2023/12/15 02:57:57;;;;;;;9.30;6.20;;;1.30;99.90;0.30;101042;;;;584480;240;24030;-78
2023/12/15 03:00:25;;;;;;;8.87;5.90;;;1.30;99.90;0.20;101042;;;;589122;240;24051;-77
2023/12/15 03:02:53;;;;;;;10.77;5.90;;;1.30;99.90;0.20;101043;;;;598145;240;25069;-79
2023/12/15 03:05:21;;;;;;;9.57;5.97;;;1.30;99.90;0.20;101043;;;;585553;240;24037;-80
2023/12/15 03:07:48;;;;;;;10.50;6.00;;;1.20;99.90;0.20;101049;;;;597920;240;24062;-79
2023/12/15 03:10:16;;;;;;;9.00;5.97;;;1.30;99.90;0.20;101052;;;;584909;240;24085;-79
2023/12/15 03:12:44;;;;;;;9.03;6.17;;;1.20;99.90;0.20;101041;;;;597484;240;24019;-79
2023/12/15 03:15:12;;;;;;;11.57;6.87;;;1.20;99.90;0.20;101042;;;;585258;240;24043;-77
2023/12/15 03:17:41;;;;;;;8.90;6.57;;;1.20;99.90;0.20;101055;;;;576765;245;24038;-77
2023/12/15 03:20:13;;;;;;;12.33;6.80;;;1.30;99.90;0.20;101067;;;;585035;240;24040;-78
2023/12/15 03:22:41;;;;;;;11.63;8.30;;;1.30;99.90;0.20;101067;;;;582743;240;24085;-79
2023/12/15 03:25:08;;;;;;;10.60;8.13;;;1.20;99.90;0.20;101072;;;;584712;240;24036;-78
2023/12/15 03:27:36;;;;;;;9.20;7.40;;;1.20;99.90;0.20;101074;;;;597136;240;24032;-78
2023/12/15 03:30:04;;;;;;;11.03;7.57;;;1.20;99.90;0.20;101074;;;;585124;240;24040;-79
2023/12/15 03:32:31;;;;;;;16.45;11.07;;;1.20;99.90;0.20;101077;;;;571823;245;35115;-80
2023/12/15 03:34:59;;;;;;;12.93;4.03;;;1.20;99.90;0.20;101077;;;;597318;240;24039;-80
2023/12/15 03:37:28;;;;;;;11.20;4.73;;;1.20;99.90;0.20;101072;;;;585144;240;24069;-84
2023/12/15 03:39:57;;;;;;;12.07;7.47;;;1.20;99.90;0.20;101067;;;;597106;240;24053;-80
2023/12/15 03:42:24;;;;;;;12.57;7.83;;;1.20;99.90;0.20;101054;;;;588353;240;24018;-79
2023/12/15 03:44:52;;;;;;;14.47;8.47;;;1.30;99.90;0.20;101064;;;;584570;240;24037;-84
2023/12/15 03:47:20;;;;;;;10.70;7.63;;;1.20;99.90;0.20;101060;;;;596584;240;24069;-85
2023/12/15 03:49:48;;;;;;;8.67;6.83;;;1.30;99.90;0.20;101062;;;;584637;240;24119;-83
2023/12/15 03:52:16;;;;;;;10.27;6.80;;;1.30;99.90;0.20;101058;;;;596566;240;24023;-81
2023/12/15 03:54:44;;;;;;;8.27;6.77;;;1.30;99.90;0.20;101067;;;;584336;240;24049;-82
2023/12/15 03:57:13;;;;;;;7.32;5.18;;;1.30;99.90;0.20;101062;;;;591449;240;35067;-82
2023/12/15 03:59:41;;;;;;;4.73;2.97;;;1.30;99.90;0.20;101071;;;;584530;240;24047;-79
2023/12/15 04:02:12;;;;;;;8.17;3.13;;;1.30;99.90;0.20;101078;;;;596779;240;24105;-77
2023/12/15 04:04:41;;;;;;;5.67;3.30;;;1.30;99.90;0.20;101069;;;;584481;240;24075;-80
2023/12/15 04:07:04;;;;;;;6.17;2.90;;;1.30;99.90;0.20;101079;;;;595810;240;24132;-79
2023/12/15 04:09:32;;;;;;;4.73;3.30;;;1.30;99.90;0.20;101084;;;;584394;240;24050;-78
2023/12/15 04:12:00;;;;;;;7.70;3.97;;;1.20;99.90;0.30;101085;;;;598147;239;24039;-81
2023/12/15 04:14:28;;;;;;;9.17;5.47;;;1.30;99.90;0.20;101082;;;;598306;240;24077;-79
2023/12/15 04:16:56;;;;;;;9.93;5.73;;;1.40;99.90;0.20;101087;;;;597127;240;24034;-79
2023/12/15 04:19:24;;;;;;;6.77;5.70;;;1.30;99.90;0.20;101096;;;;596410;240;24034;-77
2023/12/15 04:21:52;;;;;;;8.23;6.20;;;1.30;99.90;0.20;101085;;;;596970;240;24053;-78
2023/12/15 04:24:25;;;;;;;6.60;4.50;;;1.30;99.90;0.20;101072;;;;579634;240;34981;-78
2023/12/15 04:26:49;;;;;;;3.63;2.50;;;1.30;99.90;0.20;101087;;;;596491;240;24081;-77
2023/12/15 04:29:16;;;;;;;3.60;2.53;;;1.20;99.90;0.20;101091;;;;584568;240;24057;-80
2023/12/15 04:31:44;;;;;;;6.33;2.57;;;1.30;99.90;0.30;101081;;;;576428;245;24084;-78
2023/12/15 04:34:12;;;;;;;6.30;2.80;;;1.40;99.90;0.30;101074;;;;584449;240;24034;-78
2023/12/15 04:36:40;;;;;;;5.80;3.70;;;1.40;99.90;0.30;101081;;;;596729;240;24034;-78
2023/12/15 04:39:08;;;;;;;7.67;4.27;;;1.40;99.90;0.30;101084;;;;584470;240;24072;-77
2023/12/15 04:41:37;;;;;;;5.33;4.23;;;1.40;99.90;0.30;101090;;;;597013;240;24032;-74
2023/12/15 04:44:05;;;;;;;8.27;4.83;;;1.40;99.90;0.30;101102;;;;597254;240;24004;-76
2023/12/15 04:46:33;;;;;;;7.27;5.27;;;1.40;99.90;0.30;101096;;;;596447;240;24045;-77
2023/12/15 04:49:01;;;;;;;7.07;5.67;;;1.40;99.90;0.30;101112;;;;584357;240;25087;-76
2023/12/15 04:51:29;;;;;;;7.20;5.77;;;1.40;99.90;0.30;101106;;;;596346;240;24055;-77
2023/12/15 04:53:57;;;;;;;6.73;4.50;;;2.10;99.90;0.30;101105;;;;584130;240;24070;-78
2023/12/15 04:56:26;;;;;;;8.57;5.43;;;1.40;99.90;0.30;101101;;;;589553;240;24043;-78
2023/12/15 04:58:53;;;;;;;7.77;5.30;;;1.40;99.90;0.30;101105;;;;596166;240;24156;-80
2023/12/15 05:01:21;;;;;;;6.67;5.53;;;1.40;99.90;0.40;101101;;;;584545;240;24120;-82
2023/12/15 05:03:50;;;;;;;7.50;5.47;;;1.40;99.90;0.40;101100;;;;596495;240;24041;-82
2023/12/15 05:06:21;;;;;;;7.20;5.53;;;1.50;99.90;0.40;101094;;;;584661;240;24127;-79
2023/12/15 05:08:49;;;;;;;10.77;6.10;;;1.50;99.90;0.40;101095;;;;582369;240;24083;-82
2023/12/15 05:11:17;;;;;;;7.27;5.30;;;1.40;99.90;0.40;101102;;;;596401;240;24086;-84
2023/12/15 05:13:46;;;;;;;7.53;4.82;;;1.50;99.90;0.30;101092;;;;577795;240;34958;-82
2023/12/15 05:16:13;;;;;;;3.53;2.40;;;1.40;99.90;0.30;101111;;;;597162;240;24024;-80
2023/12/15 05:18:44;;;;;;;3.80;2.67;;;1.40;99.90;0.40;101102;;;;596429;240;24041;-82
2023/12/15 05:21:09;;;;;;;3.53;2.40;;;1.40;99.90;0.30;101105;;;;582174;240;24058;-81
2023/12/15 05:23:37;;;;;;;5.87;3.43;;;1.40;99.90;0.30;101110;;;;586179;240;24036;-82
2023/12/15 05:26:05;;;;;;;6.20;2.90;;;1.40;99.90;0.30;101096;;;;597999;240;24059;-81
2023/12/15 05:28:33;;;;;;;4.70;3.43;;;1.40;99.90;0.30;101106;;;;585539;240;24060;-81
2023/12/15 05:31:01;;;;;;;7.53;5.13;;;1.40;99.90;0.30;101100;;;;597804;240;24110;-81
2023/12/15 05:33:29;;;;;;;8.43;6.53;;;1.40;99.90;0.30;101102;;;;585351;240;24080;-80
2023/12/15 05:35:57;;;;;;;12.47;7.30;;;1.40;99.90;0.30;101090;;;;597173;240;24059;-77
2023/12/15 05:38:29;;;;;;;9.07;6.83;;;1.40;99.90;0.30;101092;;;;597109;240;24024;-76
2023/12/15 05:40:53;;;;;;;9.67;6.90;;;1.40;99.90;0.30;101105;;;;584794;240;24050;-77
2023/12/15 05:43:21;;;;;;;8.53;7.17;;;1.40;99.90;0.30;101096;;;;597151;240;24080;-79
2023/12/15 05:45:49;;;;;;;8.43;6.40;;;1.40;99.90;0.30;101107;;;;597258;240;24098;-79
2023/12/15 05:48:20;;;;;;;11.87;7.70;;;1.40;99.90;0.30;101106;;;;596751;240;24022;-78
2023/12/15 05:50:45;;;;;;;10.37;7.13;;;1.40;99.90;0.30;101103;;;;586111;240;24032;-78
2023/12/15 05:53:13;;;;;;;10.03;7.33;;;1.40;99.90;0.40;101103;;;;596887;240;24030;-79
2023/12/15 05:55:41;;;;;;;10.70;7.40;;;1.40;99.90;0.40;101106;;;;584552;240;24027;-78
2023/12/15 05:58:09;;;;;;;11.00;7.03;;;1.40;99.90;0.40;101108;;;;596497;240;24020;-78
2023/12/15 06:00:37;;;;;;;11.23;7.90;;;1.40;99.90;0.40;101117;;;;584316;240;24104;-78
2023/12/15 06:03:05;;;;;;;9.93;6.40;;;1.50;99.90;0.40;101118;;;;596285;240;24054;-77
2023/12/15 06:05:35;;;;;;;10.93;6.40;;;1.40;99.90;0.40;101114;;;;584338;240;24109;-79
2023/12/15 06:08:07;;;;;;;8.30;5.55;;;1.50;99.90;0.40;101112;;;;591122;240;35052;-79
2023/12/15 06:10:32;;;;;;;4.73;3.50;;;1.50;99.90;0.40;101118;;;;587391;240;24051;-80
2023/12/15 06:13:00;;;;;;;6.00;3.23;;;1.50;99.90;0.40;101120;;;;571431;245;24095;-83
2023/12/15 06:15:28;;;;;;;3.93;2.97;;;1.50;99.90;0.50;101121;;;;584581;240;24023;-78
2023/12/15 06:17:59;;;;;;;6.20;3.67;;;1.60;99.90;0.50;101129;;;;596266;240;24122;-77
2023/12/15 06:20:24;;;;;;;6.37;3.57;;;1.50;99.90;0.50;101126;;;;587560;240;24052;-78
2023/12/15 06:22:53;;;;;;;6.60;3.70;;;1.60;99.90;0.50;101133;;;;596386;240;24048;-77
2023/12/15 06:25:19;;;;;;;7.87;3.73;;;1.50;99.90;0.50;101135;;;;584245;240;24036;-77
2023/12/15 06:27:50;;;;;;;5.70;3.67;;;1.50;99.90;0.50;101130;;;;596242;240;24042;-78
2023/12/15 06:30:18;;;;;;;7.50;4.10;;;1.60;99.90;0.60;101134;;;;596404;240;24042;-78
2023/12/15 06:32:43;;;;;;;16.47;4.47;;;1.60;99.90;0.60;101138;;;;582011;240;24075;-77
2023/12/15 06:35:11;;;;;;;17.67;6.70;;;1.60;99.90;0.60;101141;;;;597686;239;24090;-78
2023/12/15 06:37:39;;;;;;;20.10;4.23;;;1.70;99.90;0.60;101137;;;;585523;240;24006;-77
2023/12/15 06:40:11;;;;;;;6.57;4.53;;;1.70;99.90;0.60;101131;;;;597303;240;24082;-77
2023/12/15 06:42:36;;;;;;;7.17;4.43;;;1.70;99.90;0.70;101139;;;;583090;240;24049;-77
2023/12/15 06:45:07;;;;;;;7.67;3.87;;;1.70;99.90;0.70;101143;;;;585275;240;24049;-77
2023/12/15 06:47:32;;;;;;;7.03;3.93;;;1.70;99.90;0.70;101140;;;;597510;240;24151;-84
2023/12/15 06:50:00;;;;;;;6.27;3.47;;;1.70;99.90;0.70;101130;;;;597075;240;24019;-76
2023/12/15 06:52:28;;;;;;;11.17;3.27;;;1.70;99.90;0.70;101139;;;;584802;240;24094;-77
2023/12/15 06:54:56;;;;;;;13.07;4.03;;;1.70;99.90;0.70;101129;;;;576416;245;24140;-79
2023/12/15 06:57:24;;;;;;;7.97;3.67;;;1.80;99.90;0.70;101138;;;;584681;240;24045;-78
2023/12/15 06:59:52;;;;;;;11.97;3.57;;;1.70;99.90;0.70;101133;;;;596657;240;24061;-79
2023/12/15 07:02:20;;;;;;;9.57;3.97;;;1.70;99.90;0.70;101137;;;;587939;240;24037;-78
2023/12/15 07:04:48;;;;;;;4.90;3.13;;;1.80;99.90;0.70;101132;;;;596582;240;24037;-78
2023/12/15 07:07:18;;;;;;;5.13;3.67;;;1.80;99.90;0.70;101137;;;;584549;240;24045;-78
2023/12/15 07:09:44;;;;;;;4.10;3.37;;;1.80;99.90;0.70;101143;;;;570675;247;24079;-82
2023/12/15 07:12:12;;;;;;;4.53;3.10;;;1.80;99.90;0.80;101137;;;;584560;240;25126;-80
2023/12/15 07:14:40;;;;;;;5.13;3.57;;;1.80;99.90;0.80;101136;;;;596342;240;24094;-78
2023/12/15 07:17:08;;;;;;;11.43;3.50;;;1.90;99.90;0.80;101143;;;;596947;240;24030;-80
2023/12/15 07:19:36;;;;;;;9.67;2.73;;;1.90;99.90;0.80;101134;;;;597136;240;24034;-80
2023/12/15 07:22:05;;;;;;;4.30;3.17;;;1.90;99.90;0.90;101137;;;;588491;240;24124;-80
2023/12/15 07:24:34;;;;;;;9.27;3.73;;;1.90;99.90;0.90;101138;;;;597079;240;24034;-78
2023/12/15 07:27:02;;;;;;;7.10;3.87;;;1.90;99.90;0.90;101136;;;;584653;240;24070;-77
2023/12/15 07:29:30;;;;;;;7.23;4.47;;;1.90;99.90;0.90;101147;;;;596976;240;24019;-82
2023/12/15 07:32:06;;;;;;;6.63;3.50;;;1.90;99.90;0.90;101136;;;;584913;240;24035;-80
2023/12/15 07:34:31;;;;;;;3.93;3.43;;;1.90;99.90;0.90;101141;;;;582647;240;24083;-83
2023/12/15 07:36:59;;;;;;;6.47;3.03;;;1.90;99.90;1.00;101142;;;;596850;240;24031;-83
2023/12/15 07:39:29;;;;;;;7.93;3.30;;;2.00;99.90;1.00;101142;;;;584696;240;24064;-78
2023/12/15 07:41:55;;;;;;;6.97;2.47;;;2.10;99.90;1.00;101135;;;;582444;240;24039;-77
2023/12/15 07:44:23;;;;;;;3.23;2.93;;;2.10;99.90;1.10;101136;;;;596648;240;24072;-79
2023/12/15 07:46:54;;;;;;;4.60;2.77;;;2.10;99.90;1.10;101145;;;;585904;240;24129;-77
2023/12/15 07:49:19;;;;;;;2.93;2.40;;;2.10;99.90;1.20;101141;;;;597626;240;24037;-78
2023/12/15 07:51:49;;;;;;;6.43;3.57;;;2.20;99.90;1.20;101151;;;;597535;240;24045;-76
2023/12/15 07:54:16;;;;;;;6.55;5.12;;;2.30;99.90;1.30;101155;;;;580237;240;35030;-77
2023/12/15 07:56:47;;;;;;;5.23;3.10;;;2.30;99.90;1.30;101160;;;;573254;245;24067;-77
2023/12/15 07:59:14;;;;;;;5.67;3.47;;;2.40;99.90;1.40;101163;;;;597766;240;24033;-78
2023/12/15 08:01:39;;;;;;;5.30;3.50;;;2.40;99.90;1.40;101158;;;;571958;247;24093;-77
2023/12/15 08:04:10;;;;;;;7.10;2.77;;;2.50;99.90;1.40;101160;;;;585818;240;24040;-76
2023/12/15 08:06:37;;;;;;;4.37;2.80;;;2.40;99.90;1.40;101170;;;;572047;245;24087;-78
2023/12/15 08:09:04;;;;;;;5.30;3.27;;;2.50;99.90;1.50;101165;;;;597426;240;24070;-78
2023/12/15 08:11:32;;;;;;;4.03;2.87;;;2.60;99.90;1.60;101175;;;;584804;240;24049;-78
2023/12/15 08:13:59;;;;;;;4.93;3.27;;;2.60;99.90;1.60;101172;;;;596648;240;24022;-77
2023/12/15 08:16:27;;;;;;;5.87;3.33;;;2.60;99.90;1.60;101176;;;;584923;240;24046;-76
2023/12/15 08:19:04;;;;;;;3.43;3.13;;;2.70;99.90;1.70;101179;;;;586504;245;24089;-76
2023/12/15 08:21:23;;;;;;;3.87;3.00;;;2.70;99.90;1.70;101179;;;;582629;240;24093;-77
2023/12/15 08:23:51;;;;;;;4.33;2.63;;;2.70;99.90;1.70;101172;;;;596645;240;24053;-80
2023/12/15 08:26:26;;;;;;;5.60;2.87;;;2.70;99.90;1.70;101186;;;;584783;240;24083;-80
2023/12/15 08:28:54;;;;;;;3.50;2.73;;;2.70;99.90;1.70;101185;;;;595314;240;24107;-77
2023/12/15 08:31:24;;;;;;;4.93;3.20;;;2.80;99.90;1.70;101187;;;;588650;240;24047;-79
2023/12/15 08:33:52;;;;;;;3.97;3.33;;;2.70;99.90;1.70;101198;;;;576035;245;24063;-78
2023/12/15 08:36:20;;;;;;;5.80;3.73;;;2.70;99.90;1.70;101197;;;;596127;240;24057;-77
2023/12/15 08:38:47;;;;;;;5.33;2.97;;;2.70;99.90;1.70;101199;;;;584427;240;24039;-81
2023/12/15 08:41:15;;;;;;;6.13;4.07;;;2.80;99.90;1.70;101200;;;;596377;240;24055;-80
2023/12/15 08:43:43;;;;;;;5.57;3.63;;;2.80;99.90;1.70;101203;;;;596442;240;24077;-80
2023/12/15 08:46:14;;;;;;;4.50;3.27;;;2.80;99.90;1.80;101207;;;;584204;240;24043;-79
2023/12/15 08:48:40;;;;;;;6.07;3.77;;;2.80;99.90;1.80;101208;;;;596258;240;24035;-79
2023/12/15 08:51:08;;;;;;;4.73;3.63;;;2.70;99.90;1.80;101205;;;;596898;240;24057;-79
2023/12/15 08:53:36;;;;;;;6.10;3.73;;;2.80;99.90;1.80;101204;;;;596208;239;24137;-82
2023/12/15 08:56:08;;;;;;;4.50;3.17;;;2.90;99.90;1.80;101203;;;;584357;240;24033;-77
2023/12/15 08:58:32;;;;;;;8.20;4.07;;;2.80;99.90;1.80;101204;;;;597794;239;24044;-79
2023/12/15 09:01:00;;;;;;;5.67;4.17;;;2.80;99.90;1.90;101212;;;;597192;240;24037;-79
2023/12/15 09:03:28;;;;;;;4.70;3.33;;;2.90;99.90;1.90;101208;;;;585216;240;24088;-78
2023/12/15 09:05:57;;;;;;;7.27;3.87;;;2.90;99.90;2.00;101214;;;;597712;240;25086;-81
2023/12/15 09:08:29;;;;;;;18.20;6.83;;;3.00;99.90;2.00;101231;;;;596945;240;24041;-81
2023/12/15 09:10:53;;;;;;;5.17;3.13;;;3.00;99.90;2.10;101230;;;;597092;240;24107;-78
2023/12/15 09:13:21;;;;;;;6.60;3.17;;;3.10;99.90;2.10;101230;;;;597379;240;24138;-82
2023/12/15 09:15:52;;;;;;;2.33;2.13;;;3.10;99.90;2.10;101225;;;;585100;240;24031;-81
2023/12/15 09:18:20;;;;;;;6.10;2.70;;;3.20;99.90;2.10;101225;;;;576731;245;24085;-79
2023/12/15 09:20:48;;;;;;;4.17;3.07;;;3.20;99.90;2.20;101239;;;;582246;240;24047;-79
2023/12/15 09:23:16;;;;;;;2.37;2.10;;;3.20;99.90;2.20;101235;;;;597562;240;24038;-81
2023/12/15 09:25:47;;;;;;;3.13;2.37;;;3.20;99.90;2.20;101242;;;;596934;240;24067;-82
2023/12/15 09:28:13;;;;;;;3.40;2.47;;;3.30;99.90;2.20;101243;;;;582440;244;24109;-79
2023/12/15 09:30:47;;;;;;;3.63;3.33;;;3.20;99.90;2.20;101237;;;;588297;240;24088;-81
2023/12/15 09:33:11;;;;;;;4.10;2.80;;;3.20;99.90;2.10;101236;;;;586273;240;24042;-77
2023/12/15 09:35:40;;;;;;;3.73;2.90;;;3.10;99.90;2.10;101237;;;;586155;240;24034;-82
2023/12/15 09:38:08;;;;;;;6.93;2.60;;;3.10;99.90;2.20;101239;;;;586171;240;24025;-77
2023/12/15 09:40:37;;;;;;;3.27;2.97;;;3.20;99.90;2.10;101242;;;;588075;240;24054;-81
2023/12/15 09:43:04;;;;;;;4.53;3.03;;;3.10;99.90;2.20;101240;;;;586132;240;24046;-84
2023/12/15 09:45:32;;;;;;;5.27;2.57;;;3.10;99.90;2.20;101245;;;;586156;240;24036;-82
2023/12/15 09:47:59;;;;;;;3.47;2.87;;;3.20;99.90;2.30;101247;;;;586240;240;24027;-80
2023/12/15 09:50:30;;;;;;;2.73;2.50;;;3.30;99.90;2.40;101242;;;;595410;240;24035;-82
2023/12/15 09:52:55;;;;;;;10.30;5.93;;;3.40;99.90;2.50;101228;;;;583846;240;34938;-79
2023/12/15 09:55:24;;;;;;;9.02;6.45;;;3.60;99.90;2.60;101245;;;;590713;240;34966;-80
2023/12/15 09:57:54;;;;;;;9.32;5.53;;;3.60;99.90;2.70;101244;;;;591967;240;35161;-78
2023/12/15 10:00:22;;;;;;;7.93;6.00;;;3.80;99.90;2.90;101248;;;;584012;240;45982;-78
2023/12/15 10:02:48;;;;;;;6.33;3.87;;;3.90;99.90;2.90;101254;;;;584660;240;24027;-77
2023/12/15 10:05:18;;;;;;;5.20;3.57;;;4.00;99.90;3.00;101253;;;;586312;240;24061;-79
2023/12/15 10:07:44;;;;;;;5.53;3.07;;;4.00;99.90;3.10;101254;;;;584825;240;24033;-79
2023/12/15 10:10:12;;;;;;;3.83;3.43;;;4.10;99.90;3.10;101257;;;;587288;240;24077;-76
2023/12/15 10:12:44;;;;;;;3.43;2.93;;;4.20;99.90;3.30;101254;;;;587279;240;24025;-78
2023/12/15 10:15:11;;;;;;;5.63;2.13;;;4.20;99.90;3.40;101248;;;;586515;240;24044;-77
2023/12/15 10:17:35;;;;;;;3.53;2.77;;;4.60;99.90;3.60;101251;;;;588389;240;24080;-77
2023/12/15 10:20:12;;;;;;;4.33;3.57;;;4.70;99.90;3.80;101255;;;;586718;240;24053;-78
2023/12/15 10:22:38;;;;;;;3.40;2.60;;;4.90;99.90;4.00;101254;;;;586176;240;24047;-78
2023/12/15 10:25:23;;;;;;;2.43;2.23;;;5.00;99.90;4.00;101252;;;;598405;240;24125;-77
2023/12/15 10:27:52;;;;;;;2.60;2.40;;;5.00;99.90;4.00;101268;;;;588810;240;24035;-77
2023/12/15 10:30:22;;;;;;;8.07;3.23;;;5.10;99.90;4.00;101267;;;;586454;240;24119;-79
2023/12/15 10:32:50;;;;;;;4.17;2.30;;;4.90;99.90;3.90;101268;;;;588603;240;24051;-81
2023/12/15 10:35:15;;;;;;;3.70;2.67;;;4.80;99.90;3.80;101258;;;;586458;240;25177;-76
2023/12/15 10:37:44;;;;;;;4.33;2.83;;;4.80;99.90;3.70;101259;;;;596182;240;24041;-78
2023/12/15 10:40:15;;;;;;;4.90;3.33;;;4.70;99.90;3.60;101281;;;;586566;240;24034;-78
2023/12/15 10:42:43;;;;;;;4.63;2.47;;;4.60;99.90;3.60;101282;;;;596278;240;24056;-76
2023/12/15 10:45:08;;;;;;;5.03;2.50;;;4.50;99.90;3.50;101281;;;;596047;240;24077;-77
2023/12/15 10:47:36;;;;;;;3.27;2.03;;;4.50;99.90;3.50;101293;;;;597439;240;24086;-77
2023/12/15 10:50:08;;;;;;;3.80;2.50;;;4.40;99.90;3.40;101286;;;;589051;240;24077;-77
2023/12/15 10:52:35;;;;;;;3.83;2.33;;;4.20;99.90;3.20;101285;;;;585856;240;24042;-78
2023/12/15 10:55:02;;;;;;;3.30;1.90;;;4.10;99.90;3.10;101281;;;;588188;240;24046;-76
2023/12/15 10:57:28;;;;;;;5.77;2.93;;;4.00;99.90;3.00;101282;;;;582701;240;24033;-76
2023/12/15 10:59:55;;;;;;;3.07;2.73;;;3.90;99.90;3.00;101280;;;;586369;240;24080;-78
2023/12/15 11:02:23;;;;;;;4.67;2.93;;;3.90;99.90;3.00;101276;;;;586278;240;24056;-77
2023/12/15 11:04:56;;;;;;;4.00;2.70;;;3.90;99.90;2.90;101274;;;;595811;240;25166;-76
2023/12/15 11:07:25;;;;;;;3.53;2.97;;;3.80;99.90;2.90;101284;;;;584515;240;24058;-77
2023/12/15 11:09:54;;;;;;;3.43;3.00;;;3.80;99.90;2.90;101274;;;;596830;240;24172;-78
2023/12/15 11:12:34;;;;;;;8.90;5.43;;;3.90;99.90;2.90;101282;;;;579035;240;35009;-76
2023/12/15 11:15:08;;;;;;;5.63;3.03;;;3.90;99.90;2.90;101286;;;;588056;240;25377;-77
2023/12/15 11:17:45;;;;;;;4.10;3.13;;;3.90;99.90;2.90;101291;;;;584180;240;24082;-75
2023/12/15 11:20:10;;;;;;;3.83;2.80;;;3.90;99.90;3.00;101284;;;;596060;239;24049;-76
2023/12/15 11:22:53;;;;;;;4.53;3.47;;;3.90;99.90;2.90;101286;;;;597188;240;24030;-78
2023/12/15 11:25:20;;;;;;;5.70;3.10;;;3.90;99.90;2.90;101280;;;;596689;240;24026;-77